createdAt,value
2023-11-04T00:00:50.512Z,94.00
2023-11-04T00:03:24.055Z,94.00
2023-11-04T00:05:51.474Z,94.50
2023-11-04T00:08:18.306Z,94.10
2023-11-04T00:10:45.371Z,94.00
2023-11-04T00:13:12.200Z,94.10
2023-11-04T00:15:38.947Z,94.10
2023-11-04T00:18:05.792Z,94.20
2023-11-04T00:20:39.574Z,94.10
2023-11-04T00:23:12.691Z,94.00
2023-11-04T00:25:39.993Z,94.10
2023-11-04T00:28:06.791Z,94.10
2023-11-04T00:30:33.618Z,94.10
2023-11-04T00:33:00.519Z,94.10
2023-11-04T00:35:27.765Z,94.10
2023-11-04T00:37:54.524Z,94.10
2023-11-04T00:40:22.386Z,94.20
2023-11-04T00:42:49.154Z,94.10
2023-11-04T00:45:16.483Z,94.20
2023-11-04T00:47:43.330Z,94.20
2023-11-04T00:50:17.540Z,94.20
2023-11-04T00:52:48.488Z,94.20
2023-11-04T00:55:15.391Z,94.20
2023-11-04T00:57:42.256Z,94.30
2023-11-04T01:00:10.657Z,94.30
2023-11-04T01:02:37.543Z,94.30
2023-11-04T01:05:04.986Z,94.70
2023-11-04T01:07:32.151Z,94.30
2023-11-04T01:09:58.984Z,94.40
2023-11-04T01:12:26.169Z,94.40
2023-11-04T01:14:53.057Z,94.50
2023-11-04T01:17:19.902Z,94.60
2023-11-04T01:19:47.455Z,94.60
2023-11-04T01:22:16.681Z,94.70
2023-11-04T01:24:43.906Z,94.80
2023-11-04T01:27:10.945Z,94.80
2023-11-04T01:29:38.390Z,94.90
2023-11-04T01:32:08.500Z,94.90
2023-11-04T01:34:35.425Z,95.00
2023-11-04T01:37:02.780Z,95.00
2023-11-04T01:39:29.642Z,95.10
2023-11-04T01:41:56.653Z,95.10
2023-11-04T01:44:23.655Z,95.20
2023-11-04T01:46:51.004Z,95.20
2023-11-04T01:49:17.863Z,95.20
2023-11-04T01:51:45.043Z,95.20
2023-11-04T01:54:12.507Z,95.30
2023-11-04T01:56:41.118Z,95.30
2023-11-04T01:59:11.255Z,95.30
2023-11-04T02:01:41.615Z,95.30
2023-11-04T02:04:08.612Z,95.30
2023-11-04T02:06:35.466Z,95.40
2023-11-04T02:09:02.322Z,95.40
2023-11-04T02:11:29.096Z,95.50
2023-11-04T02:13:56.968Z,95.50
2023-11-04T02:16:23.974Z,95.50
2023-11-04T02:18:50.880Z,95.50
2023-11-04T02:21:17.879Z,95.50
2023-11-04T02:23:44.938Z,95.50
2023-11-04T02:26:11.707Z,95.50
2023-11-04T02:28:38.470Z,95.50
2023-11-04T02:31:05.280Z,95.50
2023-11-04T02:33:32.140Z,95.50
2023-11-04T02:35:58.913Z,95.50
2023-11-04T02:38:25.640Z,95.50
2023-11-04T02:40:52.403Z,95.50
2023-11-04T02:43:19.187Z,95.50
2023-11-04T02:45:46.000Z,95.50
2023-11-04T02:48:12.944Z,95.50
2023-11-04T02:50:39.727Z,95.50
2023-11-04T02:53:06.514Z,95.50
2023-11-04T02:55:33.220Z,95.50
2023-11-04T02:57:59.976Z,95.50
2023-11-04T03:00:26.798Z,95.50
2023-11-04T03:02:53.679Z,95.50
2023-11-04T03:05:27.829Z,95.50
2023-11-04T03:08:03.213Z,95.60
2023-11-04T03:10:29.951Z,95.60
2023-11-04T03:12:56.763Z,95.60
2023-11-04T03:15:23.600Z,95.60
2023-11-04T03:17:50.512Z,95.50
2023-11-04T03:20:17.424Z,95.60
2023-11-04T03:22:44.152Z,95.60
2023-11-04T03:25:12.166Z,95.60
2023-11-04T03:27:39.141Z,95.60
2023-11-04T03:30:06.542Z,95.60
2023-11-04T03:32:33.325Z,95.60
2023-11-04T03:35:00.187Z,95.60
2023-11-04T03:37:29.063Z,95.60
2023-11-04T03:39:55.830Z,95.60
2023-11-04T03:42:22.658Z,95.60
2023-11-04T03:44:49.399Z,95.60
2023-11-04T03:47:16.503Z,95.60
2023-11-04T03:49:43.354Z,95.60
2023-11-04T03:52:10.510Z,95.60
2023-11-04T03:54:38.253Z,95.60
2023-11-04T03:57:05.054Z,95.60
2023-11-04T03:59:31.797Z,95.60
2023-11-04T04:01:58.541Z,95.60
2023-11-04T04:04:25.325Z,95.70
2023-11-04T04:06:53.404Z,95.70
2023-11-04T04:09:20.470Z,95.70
2023-11-04T04:11:47.356Z,95.70
2023-11-04T04:14:14.621Z,95.70
2023-11-04T04:16:41.391Z,95.70
2023-11-04T04:19:08.612Z,95.80
2023-11-04T04:21:38.804Z,95.80
2023-11-04T04:24:06.426Z,95.70
2023-11-04T04:26:33.376Z,95.80
2023-11-04T04:29:00.250Z,95.80
2023-11-04T04:31:28.907Z,95.80
2023-11-04T04:33:56.556Z,95.80
2023-11-04T04:36:23.686Z,95.80
2023-11-04T04:38:52.205Z,95.70
2023-11-04T04:41:19.424Z,95.70
2023-11-04T04:43:46.290Z,95.70
2023-11-04T04:46:13.138Z,95.70
2023-11-04T04:48:40.727Z,95.70
2023-11-04T04:51:08.408Z,95.80
2023-11-04T04:53:37.277Z,95.80
2023-11-04T04:56:06.058Z,95.80
2023-11-04T04:58:32.995Z,95.80
2023-11-04T05:00:59.790Z,95.90
2023-11-04T05:03:27.984Z,95.90
2023-11-04T05:05:55.020Z,96.00
2023-11-04T05:08:22.465Z,95.90
2023-11-04T05:10:49.420Z,95.90
2023-11-04T05:13:16.161Z,96.00
2023-11-04T05:15:44.354Z,96.00
2023-11-04T05:18:11.192Z,96.30
2023-11-04T05:20:38.050Z,96.00
2023-11-04T05:23:04.877Z,96.00
2023-11-04T05:25:32.525Z,96.00
2023-11-04T05:28:00.144Z,96.00
2023-11-04T05:30:28.919Z,96.10
2023-11-04T05:32:57.511Z,96.00
2023-11-04T05:35:24.369Z,96.00
2023-11-04T05:37:51.767Z,96.00
2023-11-04T05:40:18.483Z,96.00
2023-11-04T05:42:45.406Z,96.10
2023-11-04T05:45:12.390Z,96.10
2023-11-04T05:47:39.236Z,96.10
2023-11-04T05:50:06.570Z,96.10
2023-11-04T05:52:33.552Z,96.10
2023-11-04T05:55:00.479Z,96.10
2023-11-04T05:57:28.465Z,96.10
2023-11-04T05:59:55.330Z,96.10
2023-11-04T06:02:22.068Z,96.10
2023-11-04T06:04:49.035Z,96.10
2023-11-04T06:07:16.003Z,96.20
2023-11-04T06:09:42.891Z,96.30
2023-11-04T06:12:09.704Z,96.40
2023-11-04T06:14:36.450Z,96.40
2023-11-04T06:17:05.104Z,96.50
2023-11-04T06:19:32.033Z,96.50
2023-11-04T06:21:58.977Z,96.50
2023-11-04T06:24:25.826Z,96.50
2023-11-04T06:26:52.616Z,96.50
2023-11-04T06:29:19.503Z,96.50
2023-11-04T06:31:46.289Z,96.50
2023-11-04T06:34:15.169Z,96.50
2023-11-04T06:36:41.992Z,96.60
2023-11-04T06:39:08.945Z,96.60
2023-11-04T06:41:35.935Z,96.60
2023-11-04T06:44:02.687Z,96.60
2023-11-04T06:46:29.420Z,96.50
2023-11-04T06:48:56.306Z,96.50
2023-11-04T06:51:23.306Z,96.60
2023-11-04T06:53:51.109Z,96.50
2023-11-04T06:56:18.170Z,96.50
2023-11-04T06:58:44.941Z,96.50
2023-11-04T07:01:15.994Z,96.50
2023-11-04T07:03:43.486Z,96.40
2023-11-04T07:06:18.206Z,96.50
2023-11-04T07:08:45.858Z,96.30
2023-11-04T07:11:13.874Z,96.80
2023-11-04T07:13:41.998Z,96.40
2023-11-04T07:16:13.221Z,96.40
2023-11-04T07:18:41.446Z,96.20
2023-11-04T07:21:14.488Z,96.40
2023-11-04T07:23:42.506Z,96.40
2023-11-04T07:26:09.379Z,96.40
2023-11-04T07:28:37.397Z,96.40
2023-11-04T07:31:08.451Z,96.40
2023-11-04T07:33:35.803Z,96.40
2023-11-04T07:36:06.550Z,96.40
2023-11-04T07:38:34.026Z,96.30
2023-11-04T07:41:00.931Z,96.50
2023-11-04T07:43:27.963Z,96.50
2023-11-04T07:45:54.818Z,96.60
2023-11-04T07:48:22.864Z,96.60
2023-11-04T07:50:49.996Z,96.60
2023-11-04T07:53:16.739Z,96.50
2023-11-04T07:55:43.592Z,96.60
2023-11-04T07:58:10.653Z,96.60
2023-11-04T08:00:37.515Z,96.60
2023-11-04T08:03:04.790Z,96.60
2023-11-04T08:05:31.808Z,96.60
2023-11-04T08:07:59.131Z,96.50
2023-11-04T08:10:26.838Z,96.90
2023-11-04T08:12:53.634Z,96.50
2023-11-04T08:15:20.501Z,96.60
2023-11-04T08:17:50.602Z,96.60
2023-11-04T08:20:17.492Z,96.40
2023-11-04T08:22:47.008Z,96.60
2023-11-04T08:25:14.049Z,96.50
2023-11-04T08:27:41.038Z,96.70
2023-11-04T08:30:08.482Z,96.80
2023-11-04T08:32:36.281Z,96.90
2023-11-04T08:35:03.377Z,96.80
2023-11-04T08:37:30.131Z,96.90
2023-11-04T08:39:57.761Z,96.90
2023-11-04T08:42:24.640Z,96.90
2023-11-04T08:44:51.614Z,96.90
2023-11-04T08:47:19.555Z,96.90
2023-11-04T08:49:46.475Z,97.00
2023-11-04T08:52:13.309Z,97.00
2023-11-04T08:54:43.252Z,96.90
2023-11-04T08:57:10.034Z,96.80
2023-11-04T08:59:37.616Z,96.70
2023-11-04T09:02:04.558Z,96.50
2023-11-04T09:04:31.907Z,96.40
2023-11-04T09:06:59.223Z,96.50
2023-11-04T09:09:26.624Z,96.40
2023-11-04T09:11:56.755Z,96.60
2023-11-04T09:14:25.102Z,96.80
2023-11-04T09:16:52.087Z,96.60
2023-11-04T09:19:19.132Z,96.50
2023-11-04T09:21:46.824Z,96.20
2023-11-04T09:24:13.548Z,96.10
2023-11-04T09:26:40.427Z,96.00
2023-11-04T09:29:08.228Z,96.00
2023-11-04T09:31:36.817Z,96.00
2023-11-04T09:34:09.897Z,96.10
2023-11-04T09:36:37.107Z,96.50
2023-11-04T09:39:08.099Z,96.70
2023-11-04T09:41:37.218Z,96.10
2023-11-04T09:44:05.627Z,96.30
2023-11-04T09:46:32.490Z,95.60
2023-11-04T09:49:00.441Z,95.70
2023-11-04T09:51:29.371Z,95.20
2023-11-04T09:54:00.375Z,95.00
2023-11-04T09:56:28.136Z,94.50
2023-11-04T09:58:55.654Z,94.70
2023-11-04T10:01:22.640Z,94.80
2023-11-04T10:03:50.119Z,94.70
2023-11-04T10:06:17.981Z,94.70
2023-11-04T10:08:45.433Z,95.00
2023-11-04T10:11:12.306Z,94.60
2023-11-04T10:13:39.093Z,94.60
2023-11-04T10:16:06.295Z,94.50
2023-11-04T10:18:38.818Z,94.40
2023-11-04T10:21:07.320Z,94.40
2023-11-04T10:23:34.424Z,94.50
2023-11-04T10:26:06.178Z,94.40
2023-11-04T10:28:34.718Z,94.40
2023-11-04T10:31:07.117Z,94.40
2023-11-04T10:33:39.031Z,94.00
2023-11-04T10:36:09.248Z,94.20
2023-11-04T10:38:38.035Z,94.30
2023-11-04T10:41:07.682Z,94.30
2023-11-04T10:43:52.281Z,94.10
2023-11-04T10:46:43.314Z,94.00
2023-11-04T10:49:23.944Z,94.00
2023-11-04T10:51:59.543Z,93.80
2023-11-04T10:54:41.518Z,94.20
2023-11-04T10:57:31.868Z,93.80
2023-11-04T11:00:09.217Z,93.40
2023-11-04T11:02:38.363Z,94.40
2023-11-04T11:05:07.814Z,94.70
2023-11-04T11:07:36.235Z,94.30
2023-11-04T11:10:05.048Z,94.40
2023-11-04T11:12:34.251Z,94.30
2023-11-04T11:15:01.500Z,94.10
2023-11-04T11:17:33.200Z,94.20
2023-11-04T11:20:00.274Z,93.80
2023-11-04T11:22:31.301Z,94.00
2023-11-04T11:24:58.883Z,93.80
2023-11-04T11:27:26.402Z,93.90
2023-11-04T11:29:54.668Z,93.60
2023-11-04T11:32:22.148Z,93.50
2023-11-04T11:34:53.941Z,93.40
2023-11-04T11:37:22.782Z,92.90
2023-11-04T11:39:50.373Z,93.10
2023-11-04T11:42:18.876Z,93.10
2023-11-04T11:44:45.827Z,93.00
2023-11-04T11:47:12.879Z,93.00
2023-11-04T11:49:39.714Z,92.80
2023-11-04T11:52:06.718Z,92.70
2023-11-04T11:54:34.275Z,92.50
2023-11-04T11:57:01.158Z,92.30
2023-11-04T11:59:29.052Z,92.30
2023-11-04T12:01:56.532Z,92.10
2023-11-04T12:04:24.988Z,92.20
2023-11-04T12:06:54.170Z,92.10
2023-11-04T12:09:23.427Z,91.90
2023-11-04T12:11:55.490Z,92.00
2023-11-04T12:14:24.549Z,91.30
2023-11-04T12:16:52.778Z,91.50
2023-11-04T12:19:20.474Z,91.30
2023-11-04T12:21:47.426Z,91.40
2023-11-04T12:24:14.450Z,91.30
2023-11-04T12:26:42.620Z,91.40
2023-11-04T12:29:10.676Z,91.30
2023-11-04T12:31:40.270Z,91.20
2023-11-04T12:34:08.196Z,90.90
2023-11-04T12:36:35.384Z,90.90
2023-11-04T12:39:27.512Z,91.10
2023-11-04T12:41:55.123Z,90.10
2023-11-04T12:44:28.167Z,91.00
2023-11-04T12:46:57.037Z,90.70
2023-11-04T12:49:23.854Z,90.80
2023-11-04T12:51:50.619Z,90.70
2023-11-04T12:54:17.329Z,90.80
2023-11-04T12:56:44.799Z,90.80
2023-11-04T12:59:11.503Z,90.80
2023-11-04T13:01:38.370Z,90.50
2023-11-04T13:04:05.523Z,90.90
2023-11-04T13:06:32.965Z,90.90
2023-11-04T13:08:59.714Z,91.10
2023-11-04T13:11:27.077Z,91.20
2023-11-04T13:13:54.207Z,91.40
2023-11-04T13:16:21.129Z,91.50
2023-11-04T13:21:14.895Z,91.70
2023-11-04T13:23:42.106Z,91.90
2023-11-04T13:26:11.136Z,92.00
2023-11-04T13:28:38.180Z,92.00
2023-11-04T13:31:07.559Z,92.20
2023-11-04T13:33:34.354Z,92.30
2023-11-04T13:36:01.581Z,92.30
2023-11-04T13:38:28.301Z,92.40
2023-11-04T13:40:55.197Z,92.50
2023-11-04T13:43:21.889Z,92.50
2023-11-04T13:45:48.654Z,92.60
2023-11-04T13:48:15.485Z,92.60
2023-11-04T13:50:42.331Z,92.80
2023-11-04T13:53:09.117Z,93.00
2023-11-04T13:55:35.985Z,93.10
2023-11-04T13:58:03.146Z,93.30
2023-11-04T14:00:30.368Z,93.40
2023-11-04T14:02:57.298Z,93.60
2023-11-04T14:05:24.233Z,93.70
2023-11-04T14:07:51.026Z,93.90
2023-11-04T14:10:17.822Z,94.10
2023-11-04T14:12:45.054Z,94.40
2023-11-04T14:15:13.798Z,94.60
2023-11-04T14:17:40.718Z,94.80
2023-11-04T14:20:08.335Z,95.00
2023-11-04T14:22:35.693Z,95.30
2023-11-04T14:25:02.615Z,95.60
2023-11-04T14:27:29.421Z,95.90
2023-11-04T14:29:56.198Z,96.10
2023-11-04T14:32:23.359Z,96.30
2023-11-04T14:34:50.457Z,96.50
2023-11-04T14:37:17.699Z,96.70
2023-11-04T14:39:44.765Z,97.00
2023-11-04T14:42:11.771Z,97.20
2023-11-04T14:44:41.725Z,97.30
2023-11-04T14:47:08.571Z,97.60
2023-11-04T14:49:35.340Z,97.70
2023-11-04T14:52:02.674Z,97.90
2023-11-04T14:54:29.461Z,98.00
2023-11-04T14:56:56.207Z,98.20
2023-11-04T14:59:22.945Z,98.30
2023-11-04T15:01:51.203Z,98.50
2023-11-04T15:04:18.068Z,98.60
2023-11-04T15:06:46.612Z,98.80
2023-11-04T15:09:13.970Z,98.90
2023-11-04T15:11:42.012Z,99.10
2023-11-04T15:14:11.346Z,99.50
2023-11-04T15:16:38.705Z,99.30
2023-11-04T15:19:05.856Z,99.40
2023-11-04T15:21:32.890Z,99.60
2023-11-04T15:23:59.658Z,99.70
2023-11-04T15:26:26.404Z,99.80
2023-11-04T15:28:53.252Z,99.90
2023-11-04T15:31:20.128Z,99.90
2023-11-04T15:33:47.063Z,99.90
2023-11-04T15:36:13.843Z,99.90
2023-11-04T15:38:40.592Z,99.90
2023-11-04T15:41:09.911Z,99.90
2023-11-04T15:43:36.748Z,99.90
2023-11-04T15:46:07.429Z,99.90
2023-11-04T15:48:34.403Z,99.90
2023-11-04T15:51:01.343Z,99.90
2023-11-04T15:53:31.645Z,99.90
2023-11-04T15:55:58.522Z,99.90
2023-11-04T15:58:28.885Z,99.90
2023-11-04T16:00:57.509Z,99.90
2023-11-04T16:03:24.370Z,99.90
2023-11-04T16:05:51.134Z,99.90
2023-11-04T16:08:17.996Z,99.90
2023-11-04T16:10:44.811Z,99.90
2023-11-04T16:13:11.729Z,99.90
2023-11-04T16:15:38.428Z,99.90
2023-11-04T16:18:06.487Z,99.90
2023-11-04T16:20:34.513Z,99.90
2023-11-04T16:23:03.881Z,99.90
2023-11-04T16:25:30.940Z,99.90
2023-11-04T16:28:00.956Z,99.90
2023-11-04T16:30:28.903Z,99.90
2023-11-04T16:32:56.185Z,99.90
2023-11-04T16:35:23.026Z,99.90
2023-11-04T16:37:50.571Z,99.90
2023-11-04T16:40:17.492Z,99.90
2023-11-04T16:42:44.405Z,99.90
2023-11-04T16:45:15.246Z,99.90
2023-11-04T16:47:43.802Z,99.90
2023-11-04T16:50:15.052Z,99.90
2023-11-04T16:52:42.318Z,99.90
2023-11-04T16:55:09.991Z,99.90
2023-11-04T16:57:37.364Z,99.90
2023-11-04T17:00:10.282Z,99.90
2023-11-04T17:02:37.949Z,99.90
2023-11-04T17:05:05.018Z,99.90
2023-11-04T17:07:31.961Z,99.90
2023-11-04T17:09:58.900Z,99.90
2023-11-04T17:12:25.832Z,99.90
2023-11-04T17:14:52.675Z,99.90
2023-11-04T17:17:19.454Z,99.90
2023-11-04T17:19:46.225Z,99.90
2023-11-04T17:22:13.319Z,99.90
2023-11-04T17:24:40.159Z,99.90
2023-11-04T17:27:07.658Z,99.90
2023-11-04T17:29:36.167Z,99.90
2023-11-04T17:32:03.088Z,99.90
2023-11-04T17:34:29.956Z,99.90
2023-11-04T17:36:56.879Z,99.90
2023-11-04T17:39:23.611Z,99.90
2023-11-04T17:41:50.658Z,99.90
2023-11-04T17:44:17.389Z,99.90
2023-11-04T17:46:44.212Z,99.90
2023-11-04T17:49:11.148Z,99.90
2023-11-04T17:51:38.068Z,99.90
2023-11-04T17:54:05.031Z,99.90
2023-11-04T17:56:31.913Z,99.90
2023-11-04T17:58:58.875Z,99.90
2023-11-04T18:01:25.851Z,99.90
2023-11-04T18:03:52.618Z,99.90
2023-11-04T18:06:20.014Z,99.90
2023-11-04T18:08:46.813Z,99.90
2023-11-04T18:11:15.377Z,99.90
2023-11-04T18:13:42.256Z,99.90
2023-11-04T18:16:09.501Z,99.90
2023-11-04T18:18:36.384Z,99.90
2023-11-04T18:21:06.719Z,99.90
2023-11-04T18:23:34.677Z,99.90
2023-11-04T18:26:01.390Z,99.90
2023-11-04T18:28:30.479Z,99.90
2023-11-04T18:30:57.301Z,99.90
2023-11-04T18:33:25.422Z,99.90
2023-11-04T18:35:52.339Z,99.90
2023-11-04T18:38:19.061Z,99.90
2023-11-04T18:40:46.005Z,99.90
2023-11-04T18:43:12.761Z,99.90
2023-11-04T18:45:43.046Z,99.90
2023-11-04T18:48:10.722Z,99.90
2023-11-04T18:50:37.536Z,99.90
2023-11-04T18:53:04.272Z,99.90
2023-11-04T18:55:31.054Z,99.90
2023-11-04T18:57:58.018Z,99.90
2023-11-04T19:00:25.682Z,99.90
2023-11-04T19:02:52.594Z,99.90
2023-11-04T19:05:20.256Z,99.90
2023-11-04T19:07:48.222Z,99.90
2023-11-04T19:10:15.067Z,99.90
2023-11-04T19:12:43.461Z,99.90
2023-11-04T19:15:10.311Z,99.90
2023-11-04T19:17:38.351Z,99.90
2023-11-04T19:20:06.345Z,99.90
2023-11-04T19:22:33.081Z,99.90
2023-11-04T19:25:00.623Z,99.90
2023-11-04T19:27:30.215Z,99.90
2023-11-04T19:29:58.359Z,99.90
2023-11-04T19:32:25.316Z,99.90
2023-11-04T19:34:54.659Z,99.90
2023-11-04T19:37:23.097Z,99.90
2023-11-04T19:39:50.224Z,99.90
2023-11-04T19:42:17.041Z,99.90
2023-11-04T19:44:43.939Z,99.90
2023-11-04T19:47:10.726Z,99.90
2023-11-04T19:49:37.611Z,99.90
2023-11-04T19:52:04.638Z,99.90
2023-11-04T19:54:31.462Z,99.90
2023-11-04T19:56:58.271Z,99.90
2023-11-04T19:59:25.027Z,99.90
2023-11-04T20:01:51.844Z,99.90
2023-11-04T20:04:19.078Z,99.90
2023-11-04T20:06:45.919Z,99.90
2023-11-04T20:09:12.869Z,99.90
2023-11-04T20:11:39.672Z,99.90
2023-11-04T20:14:06.424Z,99.90
2023-11-04T20:16:33.191Z,99.90
2023-11-04T20:19:00.071Z,99.90
2023-11-04T20:21:28.627Z,99.90
2023-11-04T20:23:55.428Z,99.90
2023-11-04T20:26:22.627Z,99.90
2023-11-04T20:28:49.346Z,99.90
2023-11-04T20:31:16.215Z,99.90
2023-11-04T20:33:46.703Z,99.90
2023-11-04T20:36:15.032Z,99.90
2023-11-04T20:38:42.825Z,99.90
2023-11-04T20:41:09.631Z,99.90
2023-11-04T20:43:36.401Z,99.90
2023-11-04T20:46:05.067Z,99.90
2023-11-04T20:48:32.342Z,99.90
2023-11-04T20:50:59.090Z,99.90
2023-11-04T20:53:26.007Z,99.90
2023-11-04T20:55:53.242Z,99.90
2023-11-04T20:58:19.981Z,99.90
2023-11-04T21:00:46.795Z,99.90
2023-11-04T21:03:14.079Z,99.90
2023-11-04T21:05:42.162Z,99.90
2023-11-04T21:08:08.972Z,99.90
2023-11-04T21:10:35.940Z,99.90
2023-11-04T21:13:04.689Z,99.90
2023-11-04T21:15:33.207Z,99.90
2023-11-04T21:18:00.087Z,99.90
2023-11-04T21:20:26.868Z,99.90
2023-11-04T21:22:54.652Z,99.90
2023-11-04T21:25:21.585Z,99.90
2023-11-04T21:27:51.375Z,99.90
2023-11-04T21:30:18.197Z,99.90
2023-11-04T21:32:45.010Z,99.90
2023-11-04T21:35:11.873Z,99.90
2023-11-04T21:37:38.625Z,99.90
2023-11-04T21:40:06.026Z,99.90
2023-11-04T21:42:33.080Z,99.90
2023-11-04T21:44:59.883Z,99.90
2023-11-04T21:47:26.689Z,99.90
2023-11-04T21:49:53.413Z,99.90
2023-11-04T21:52:20.232Z,99.90
2023-11-04T21:54:46.973Z,99.90
2023-11-04T21:57:13.704Z,99.90
2023-11-04T21:59:40.421Z,99.90
2023-11-04T22:02:07.781Z,99.90
2023-11-04T22:04:34.711Z,99.90
2023-11-04T22:07:03.854Z,99.90
2023-11-04T22:09:30.695Z,99.90
2023-11-04T22:11:57.517Z,99.90
2023-11-04T22:14:24.294Z,99.90
2023-11-04T22:16:51.291Z,99.90
2023-11-04T22:19:18.177Z,99.90
2023-11-04T22:21:45.025Z,99.90
2023-11-04T22:24:11.797Z,99.90
2023-11-04T22:26:41.325Z,99.90
2023-11-04T22:29:08.582Z,99.90
2023-11-04T22:31:35.367Z,99.90
2023-11-04T22:34:02.316Z,99.90
2023-11-04T22:36:29.143Z,99.90
2023-11-04T22:38:56.001Z,99.90
2023-11-04T22:41:22.725Z,99.90
2023-11-04T22:43:49.586Z,99.90
2023-11-04T22:46:16.430Z,99.90
2023-11-04T22:48:43.184Z,99.90
2023-11-04T22:51:11.745Z,99.90
2023-11-04T22:53:38.731Z,99.90
2023-11-04T22:56:06.542Z,99.90
2023-11-04T22:58:33.287Z,99.90
2023-11-04T23:01:00.837Z,99.90
2023-11-04T23:03:28.213Z,99.90
2023-11-04T23:05:55.132Z,99.90
2023-11-04T23:08:22.022Z,99.90
2023-11-04T23:10:48.771Z,99.90
2023-11-04T23:13:15.618Z,99.90
2023-11-04T23:15:42.400Z,99.90
2023-11-04T23:18:09.249Z,99.90
2023-11-04T23:20:37.242Z,99.90
2023-11-04T23:23:04.065Z,99.90
2023-11-04T23:25:30.895Z,99.90
2023-11-04T23:27:57.700Z,99.90
2023-11-04T23:30:25.810Z,99.90
2023-11-04T23:32:52.572Z,99.90
2023-11-04T23:35:19.451Z,99.90
2023-11-04T23:37:46.376Z,99.90
2023-11-04T23:40:13.761Z,99.90
2023-11-04T23:42:42.475Z,99.90
2023-11-04T23:45:09.785Z,99.90
2023-11-04T23:47:37.432Z,99.90
2023-11-04T23:50:06.006Z,99.90
2023-11-04T23:52:32.792Z,99.90
2023-11-04T23:54:59.710Z,99.90
2023-11-04T23:57:26.585Z,99.90
2023-11-04T23:59:53.389Z,99.90
